< < Back
Terminal Aerodrome Forecast


Current Version              Previous Versions:   1  2  3  4  5  6  7  8  9  

Terminal Aerodrome Forecast

245
FTUS42 KCAE 180500 AAA
TAFAGS
TAF AMD
KAGS 180532Z 1806/1906 00000KT 4SM BR SCT250
      TEMPO 1808/1812 1SM BR
     FM181500 VRB05KT P6SM SCT150=



Latest METAR

749
SAUS70 KWBC 180500 RRA
MTRAGS
METAR KAGS 180453Z 00000KT 10SM CLR 02/01 A3012 RMK AO2 SLP199 T00220011
401671017


USA.gov is the U.S. government's official web portal to all federal, state and local government web resources and services.